Time;durP1;ratioP1;P1;durP2;ratioP2;P2;SDS_P1;SDS_P2;PMS_P1;PMS_P2;Temp;Humidity;BMP_temperature;BMP_pressure;BME280_temperature;BME280_humidity;BME280_pressure;Samples;Min_cycle;Max_cycle;Signal;HPM_P1;HPM_P2
2023/01/09 00:01:51;;;;;;;99.10;59.00;;;;;;;3.01;87.08;97796.44;89890;1269;98065;-76
2023/01/09 00:03:53;;;;;;;101.60;58.70;;;;;;;3.02;87.17;97792.40;90021;1271;22533;-77
2023/01/09 00:05:54;;;;;;;102.20;58.60;;;;;;;3.03;87.17;97787.70;90367;1267;22478;-75
2023/01/09 00:07:57;;;;;;;95.70;57.80;;;;;;;3.02;86.99;97782.32;90129;1271;98175;-76
2023/01/09 00:09:59;;;;;;;94.50;58.10;;;;;;;3.02;87.29;97776.11;90197;1270;24588;-75
2023/01/09 00:12:01;;;;;;;99.90;59.30;;;;;;;2.99;87.20;97781.02;90080;1270;22558;-76
2023/01/09 00:14:04;;;;;;;93.20;58.20;;;;;;;2.99;87.13;97785.23;90071;1271;97882;-76
2023/01/09 00:16:08;;;;;;;91.20;58.20;;;;;;;2.98;87.09;97783.54;90166;1263;22523;-76
2023/01/09 00:18:11;;;;;;;90.80;56.30;;;;;;;2.97;87.28;97782.52;90391;1270;22788;-74
2023/01/09 00:20:13;;;;;;;92.20;58.60;;;;;;;2.96;87.05;97775.64;90212;1267;100910;-76
2023/01/09 00:22:15;;;;;;;92.40;60.30;;;;;;;2.95;87.17;97769.42;90109;1264;22880;-75
2023/01/09 00:24:17;;;;;;;89.50;56.60;;;;;;;2.94;87.10;97772.21;90054;1270;25131;-76
2023/01/09 00:26:19;;;;;;;94.10;56.80;;;;;;;2.92;87.05;97766.41;90003;1269;98779;-77
2023/01/09 00:28:20;;;;;;;90.40;53.50;;;;;;;2.89;87.30;97764.91;89915;1272;22723;-76
2023/01/09 00:30:22;;;;;;;90.80;53.90;;;;;;;2.88;87.02;97767.05;90098;1270;22470;-77
2023/01/09 00:32:25;;;;;;;83.80;51.50;;;;;;;2.86;86.89;97767.30;90031;1269;98901;-76
2023/01/09 00:34:27;;;;;;;88.50;53.00;;;;;;;2.82;86.96;97768.14;90069;1269;22992;-75
2023/01/09 00:36:29;;;;;;;85.20;53.40;;;;;;;2.79;86.66;97769.80;90003;1264;22542;-75
2023/01/09 00:38:31;;;;;;;83.50;53.10;;;;;;;2.78;87.05;97766.74;90077;1270;97962;-77
2023/01/09 00:40:33;;;;;;;86.50;48.60;;;;;;;2.76;86.99;97766.44;90176;1270;22635;-76
2023/01/09 00:42:35;;;;;;;78.60;48.70;;;;;;;2.73;86.77;97769.48;90146;1269;22538;-74
2023/01/09 00:44:44;;;;;;;87.80;49.30;;;;;;;2.71;86.86;97769.39;90082;1270;98320;-77
2023/01/09 00:46:55;;;;;;;82.70;49.80;;;;;;;2.67;87.13;97764.48;90102;1269;22754;-77
2023/01/09 00:48:58;;;;;;;85.70;52.40;;;;;;;2.63;87.09;97765.52;90165;1262;23777;-76
2023/01/09 00:51:00;;;;;;;86.90;50.40;;;;;;;2.59;87.19;97770.71;90206;1269;97620;-76
2023/01/09 00:53:09;;;;;;;79.20;49.60;;;;;;;2.53;87.13;97772.45;90206;1255;22544;-76
2023/01/09 00:55:13;;;;;;;85.30;52.90;;;;;;;2.50;87.05;97773.27;90227;1268;22705;-76
2023/01/09 00:57:15;;;;;;;84.20;52.50;;;;;;;2.47;86.96;97770.26;90079;1270;99161;-75
2023/01/09 00:59:16;;;;;;;87.60;51.60;;;;;;;2.44;86.83;97765.14;90136;1267;22654;-77
2023/01/09 01:01:18;;;;;;;91.20;52.30;;;;;;;2.41;86.92;97766.11;90289;1266;22529;-76
2023/01/09 01:03:20;;;;;;;85.30;52.90;;;;;;;2.38;87.09;97763.11;89982;1270;97858;-77
2023/01/09 01:07:43;;;;;;;79.80;50.00;;;;;;;2.32;87.09;97756.91;90039;1254;208599;-76
2023/01/09 01:09:45;;;;;;;85.40;52.00;;;;;;;2.29;86.98;97757.36;90431;1269;98187;-76
2023/01/09 01:11:47;;;;;;;99.50;50.60;;;;;;;2.27;87.05;97758.29;90267;1268;22587;-75
2023/01/09 01:13:49;;;;;;;85.90;50.60;;;;;;;2.25;87.08;97764.27;90141;1268;97990;-74
2023/01/09 01:15:50;;;;;;;84.30;51.50;;;;;;;2.22;87.14;97755.68;90204;1268;22659;-76
2023/01/09 01:17:52;;;;;;;84.50;49.40;;;;;;;2.19;86.82;97756.65;90119;1270;22571;-75
2023/01/09 01:19:54;;;;;;;86.00;51.60;;;;;;;2.17;87.25;97756.02;90052;1270;100684;-76
2023/01/09 01:21:56;;;;;;;81.90;49.40;;;;;;;2.15;87.05;97752.11;90000;1264;22737;-76
2023/01/09 01:23:58;;;;;;;78.50;49.70;;;;;;;2.13;87.33;97755.65;90093;1269;22713;-77
2023/01/09 01:26:12;;;;;;;86.90;51.50;;;;;;;2.11;87.11;97755.70;89983;1270;100221;-76
2023/01/09 01:28:13;;;;;;;81.70;51.50;;;;;;;2.10;87.01;97748.98;89886;1270;22871;-75
2023/01/09 01:30:16;;;;;;;78.40;47.50;;;;;;;2.10;87.08;97734.96;90160;1268;25242;-75
2023/01/09 01:32:18;;;;;;;77.70;48.50;;;;;;;2.10;87.28;97730.29;90025;1270;97610;-76
2023/01/09 01:34:20;;;;;;;71.80;47.90;;;;;;;2.10;87.56;97731.83;90132;1270;26680;-76
2023/01/09 01:36:21;;;;;;;75.70;47.20;;;;;;;2.11;87.40;97730.23;90067;1267;23917;-76
2023/01/09 01:38:23;;;;;;;76.90;49.10;;;;;;;2.09;87.33;97729.59;90108;1262;99719;-74
2023/01/09 01:40:25;;;;;;;84.10;48.60;;;;;;;2.08;87.25;97724.62;89977;1257;23872;-76
2023/01/09 01:42:27;;;;;;;78.40;47.20;;;;;;;2.08;87.28;97726.20;90287;1267;25926;-76
2023/01/09 01:45:05;;;;;;;74.10;46.90;;;;;;;2.07;87.36;97728.63;89866;1267;97720;-77
2023/01/09 01:47:07;;;;;;;80.70;48.40;;;;;;;2.05;87.03;97733.91;90286;1268;22600;-77
2023/01/09 01:49:13;;;;;;;75.20;46.80;;;;;;;2.02;87.41;97735.54;90122;1270;22575;-75
2023/01/09 01:51:17;;;;;;;83.20;48.40;;;;;;;2.01;87.35;97728.30;90099;1268;97841;-76
2023/01/09 01:53:25;;;;;;;79.30;48.30;;;;;;;2.00;87.37;97727.64;90247;1269;22572;-77
2023/01/09 01:55:27;;;;;;;71.70;44.70;;;;;;;2.00;87.63;97716.40;90183;1268;22794;-77
2023/01/09 01:57:30;;;;;;;77.70;45.60;;;;;;;1.99;87.18;97706.54;89968;1267;97734;-77
2023/01/09 01:59:48;;;;;;;77.10;47.00;;;;;;;1.99;87.27;97708.98;90299;1268;22569;-76
2023/01/09 02:01:58;;;;;;;71.30;44.90;;;;;;;1.99;87.27;97708.10;90063;1270;98976;-76
2023/01/09 02:04:01;;;;;;;81.90;47.80;;;;;;;2.00;87.27;97721.44;90118;1264;22532;-78
2023/01/09 02:06:03;;;;;;;76.60;46.50;;;;;;;1.99;87.23;97717.80;90088;1269;22592;-77
2023/01/09 02:08:07;;;;;;;78.20;46.80;;;;;;;1.99;87.45;97710.52;90092;1268;98883;-77
2023/01/09 02:10:09;;;;;;;75.50;44.10;;;;;;;2.00;87.23;97716.05;90103;1267;22472;-76
2023/01/09 02:12:24;;;;;;;77.20;43.60;;;;;;;2.00;87.28;97710.16;90081;1271;22537;-76
2023/01/09 02:14:31;;;;;;;71.10;42.30;;;;;;;1.99;87.09;97705.50;89999;1267;98634;-76
2023/01/09 02:17:00;;;;;;;76.80;44.50;;;;;;;1.97;87.28;97705.58;90204;1268;22546;-77
2023/01/09 02:19:40;;;;;;;79.40;44.30;;;;;;;1.95;87.16;97700.64;90081;1263;22599;-76
2023/01/09 02:22:21;;;;;;;73.20;45.50;;;;;;;1.93;87.36;97695.34;89672;1274;98128;-76
2023/01/09 02:24:47;;;;;;;76.50;45.80;;;;;;;1.90;87.11;97692.66;89750;1259;22585;-76
2023/01/09 02:27:10;;;;;;;71.10;45.10;;;;;;;1.90;87.45;97693.36;89660;1273;98335;-76
2023/01/09 02:29:59;;;;;;;73.50;46.90;;;;;;;1.89;87.09;97691.30;89725;1275;22551;-77
2023/01/09 02:32:29;;;;;;;78.20;46.60;;;;;;;1.87;87.55;97699.69;89592;1275;97829;-76
2023/01/09 02:35:06;;;;;;;70.30;44.80;;;;;;;1.86;87.12;97696.07;89812;1273;22631;-77
2023/01/09 02:37:43;;;;;;;81.80;45.60;;;;;;;1.83;87.38;97697.89;89730;1267;22559;-76
2023/01/09 02:39:45;;;;;;;80.80;49.70;;;;;;;1.82;87.35;97695.35;89552;1274;97717;-77
2023/01/09 02:42:02;;;;;;;75.30;46.80;;;;;;;1.78;87.31;97686.84;89681;1275;22550;-76
2023/01/09 02:44:19;;;;;;;82.10;48.30;;;;;;;1.73;87.05;97689.75;89573;1276;97903;-77
2023/01/09 02:46:21;;;;;;;75.20;47.00;;;;;;;1.69;87.02;97693.34;89780;1273;22553;-78
2023/01/09 02:48:23;;;;;;;77.30;48.20;;;;;;;1.66;87.14;97689.15;89636;1277;22754;-78
2023/01/09 02:50:39;;;;;;;70.90;46.40;;;;;;;1.61;86.84;97697.08;89629;1275;97855;-77
2023/01/09 02:53:13;;;;;;;77.90;48.70;;;;;;;1.58;87.14;97706.88;89737;1276;25954;-77
2023/01/09 02:55:49;;;;;;;78.70;45.80;;;;;;;1.55;87.08;97699.35;89717;1275;22542;-77
2023/01/09 02:58:06;;;;;;;78.70;46.30;;;;;;;1.51;87.46;97701.02;90171;1267;22817;-75
2023/01/09 03:00:20;;;;;;;75.80;44.20;;;;;;;1.49;87.23;97709.06;90188;1268;22562;-75
2023/01/09 03:02:54;;;;;;;77.60;46.00;;;;;;;1.46;87.31;97708.83;90036;1267;97832;-76
2023/01/09 03:05:13;;;;;;;72.10;45.80;;;;;;;1.43;87.45;97707.70;90157;1268;22536;-77
2023/01/09 03:07:35;;;;;;;79.60;46.00;;;;;;;1.40;87.26;97706.40;90078;1264;22600;-77
2023/01/09 03:09:40;;;;;;;80.60;48.00;;;;;;;1.39;87.16;97708.89;89952;1270;98358;-78
2023/01/09 03:11:47;;;;;;;79.20;47.50;;;;;;;1.36;87.44;97709.46;89949;1271;22577;-75
2023/01/09 03:13:54;;;;;;;77.10;48.50;;;;;;;1.36;87.23;97714.83;90099;1272;22495;-76
2023/01/09 03:15:59;;;;;;;83.90;50.20;;;;;;;1.35;86.99;97710.53;90287;1269;22518;-74
2023/01/09 03:18:04;;;;;;;78.70;46.90;;;;;;;1.33;87.43;97705.74;90128;1268;22538;-76
2023/01/09 03:20:11;;;;;;;73.40;47.30;;;;;;;1.32;87.24;97707.18;89835;1265;98091;-76
2023/01/09 03:22:13;;;;;;;71.50;47.30;;;;;;;1.29;87.03;97710.58;90222;1264;22836;-76
2023/01/09 03:24:15;;;;;;;71.60;45.70;;;;;;;1.28;87.50;97707.83;90200;1268;26614;-76
2023/01/09 03:26:17;;;;;;;82.00;47.10;;;;;;;1.25;87.36;97715.36;90082;1267;97302;-76
2023/01/09 03:28:28;;;;;;;78.70;50.00;;;;;;;1.22;87.11;97716.14;90152;1267;27602;-76
2023/01/09 03:30:32;;;;;;;77.10;48.50;;;;;;;1.19;86.89;97708.10;90163;1270;25428;-75
2023/01/09 03:32:33;;;;;;;73.90;46.30;;;;;;;1.15;87.36;97692.48;89726;1273;98130;-77
2023/01/09 03:34:35;;;;;;;78.70;45.50;;;;;;;1.13;87.42;97683.38;90242;1269;23519;-76
2023/01/09 03:36:37;;;;;;;78.60;46.90;;;;;;;1.09;87.20;97682.27;89989;1267;22539;-76
2023/01/09 03:38:39;;;;;;;77.80;46.60;;;;;;;1.04;87.10;97679.16;90036;1262;97620;-76
2023/01/09 03:40:42;;;;;;;79.00;49.00;;;;;;;0.99;87.17;97666.48;90020;1267;22567;-76
2023/01/09 03:42:44;;;;;;;82.50;48.60;;;;;;;0.95;87.24;97674.41;89994;1273;22583;-77
2023/01/09 03:44:46;;;;;;;86.50;49.60;;;;;;;0.94;87.43;97674.27;90116;1265;98263;-76
2023/01/09 03:46:49;;;;;;;83.30;50.20;;;;;;;0.93;87.27;97668.76;90233;1270;23142;-77
2023/01/09 03:48:50;;;;;;;90.20;52.70;;;;;;;0.92;87.13;97658.95;89967;1267;25308;-77
2023/01/09 03:50:53;;;;;;;101.90;57.30;;;;;;;0.91;87.43;97661.91;89926;1270;98784;-76
2023/01/09 03:52:56;;;;;;;107.80;59.40;;;;;;;0.90;87.27;97666.77;90244;1268;24425;-76
2023/01/09 03:54:57;;;;;;;100.00;56.60;;;;;;;0.89;87.39;97666.98;90153;1270;22668;-76
2023/01/09 03:56:59;;;;;;;91.40;53.60;;;;;;;0.86;87.37;97656.36;89883;1264;97807;-76
2023/01/09 03:59:01;;;;;;;85.20;51.80;;;;;;;0.85;87.36;97646.88;90007;1269;22572;-76
2023/01/09 04:01:04;;;;;;;90.00;53.20;;;;;;;0.84;87.39;97634.95;90029;1269;23019;-74
2023/01/09 04:03:07;;;;;;;85.30;51.70;;;;;;;0.84;87.39;97644.29;89960;1270;97662;-76
2023/01/09 04:05:09;;;;;;;80.30;45.70;;;;;;;0.82;87.61;97645.05;90144;1268;23439;-77
2023/01/09 04:07:12;;;;;;;78.30;47.20;;;;;;;0.80;87.48;97639.23;90243;1268;22558;-77
2023/01/09 04:09:13;;;;;;;85.60;46.60;;;;;;;0.79;87.45;97642.04;89973;1265;99079;-76
2023/01/09 04:11:16;;;;;;;77.30;44.80;;;;;;;0.78;87.35;97639.30;90148;1270;22581;-76
2023/01/09 04:13:18;;;;;;;72.40;43.90;;;;;;;0.76;87.32;97635.56;90167;1270;22564;-76
2023/01/09 04:15:20;;;;;;;75.70;45.20;;;;;;;0.76;87.31;97627.25;89984;1270;97862;-76
2023/01/09 04:17:22;;;;;;;78.10;45.60;;;;;;;0.76;87.18;97624.33;90195;1267;22963;-75
2023/01/09 04:19:24;;;;;;;83.70;48.00;;;;;;;0.76;87.45;97620.48;90112;1268;22593;-75
2023/01/09 04:21:26;;;;;;;83.50;48.30;;;;;;;0.78;87.22;97612.52;90020;1262;99042;-77
2023/01/09 04:23:27;;;;;;;85.10;50.60;;;;;;;0.79;87.34;97614.37;90113;1262;22523;-76
2023/01/09 04:25:29;;;;;;;90.10;52.60;;;;;;;0.80;87.49;97603.79;89994;1270;22822;-76
2023/01/09 04:27:34;;;;;;;83.50;50.50;;;;;;;0.81;87.57;97599.42;89909;1269;97858;-76
2023/01/09 04:29:35;;;;;;;78.10;48.20;;;;;;;0.82;87.78;97597.84;90109;1270;22464;-77
2023/01/09 04:31:37;;;;;;;78.90;47.80;;;;;;;0.84;87.78;97599.52;90068;1263;22561;-76
2023/01/09 04:33:39;;;;;;;79.70;46.50;;;;;;;0.87;87.60;97600.64;89922;1271;97630;-76
2023/01/09 04:35:41;;;;;;;81.00;48.00;;;;;;;0.90;87.68;97602.61;90107;1268;22495;-78
2023/01/09 04:37:43;;;;;;;73.60;46.30;;;;;;;0.92;87.42;97607.39;90027;1270;22719;-76
2023/01/09 04:39:44;;;;;;;76.80;47.40;;;;;;;0.92;87.61;97610.16;90119;1270;98072;-77
2023/01/09 04:41:49;;;;;;;84.30;49.20;;;;;;;0.92;87.52;97608.45;90114;1270;23067;-76
2023/01/09 04:43:51;;;;;;;79.60;47.00;;;;;;;0.92;87.56;97603.76;90031;1270;25304;-76
2023/01/09 04:45:53;;;;;;;73.60;44.80;;;;;;;0.90;87.48;97611.09;90129;1269;22517;-76
2023/01/09 04:47:54;;;;;;;77.90;47.90;;;;;;;0.88;87.44;97617.05;90088;1265;22471;-76
2023/01/09 04:49:56;;;;;;;83.00;50.70;;;;;;;0.88;87.63;97613.77;90225;1268;97911;-75
2023/01/09 04:51:58;;;;;;;82.30;48.80;;;;;;;0.89;87.58;97611.98;89969;1265;22572;-73
2023/01/09 04:54:00;;;;;;;76.40;46.90;;;;;;;0.89;87.68;97606.63;89966;1271;22773;-74
2023/01/09 04:56:01;;;;;;;73.90;47.90;;;;;;;0.91;87.73;97607.63;89969;1270;99173;-77
2023/01/09 04:58:03;;;;;;;82.20;49.70;;;;;;;0.91;87.53;97611.58;89968;1272;22545;-76
2023/01/09 05:00:10;;;;;;;81.00;51.20;;;;;;;0.93;87.71;97605.83;89921;1271;22609;-75
2023/01/09 05:02:12;;;;;;;88.20;54.10;;;;;;;0.94;87.72;97599.21;90078;1271;97884;-76
2023/01/09 05:04:14;;;;;;;86.50;53.10;;;;;;;0.94;87.58;97591.79;90274;1267;23400;-76
2023/01/09 05:06:16;;;;;;;88.60;54.50;;;;;;;0.93;87.51;97584.88;90162;1270;22484;-76
2023/01/09 05:08:18;;;;;;;92.90;54.10;;;;;;;0.93;87.66;97583.34;90046;1269;99130;-75
2023/01/09 05:10:19;;;;;;;92.40;54.90;;;;;;;0.94;87.73;97578.80;90019;1270;22583;-76
2023/01/09 05:12:21;;;;;;;85.50;53.80;;;;;;;0.95;87.88;97575.30;90385;1268;22526;-76
2023/01/09 05:14:27;;;;;;;85.50;51.00;;;;;;;0.98;87.96;97578.32;90150;1269;98751;-76
2023/01/09 05:16:30;;;;;;;85.10;49.00;;;;;;;1.00;87.77;97574.79;90157;1268;22537;-76
2023/01/09 05:18:31;;;;;;;78.90;46.30;;;;;;;1.03;88.04;97581.45;90175;1269;22588;-76
2023/01/09 05:20:33;;;;;;;79.10;49.70;;;;;;;1.04;87.75;97585.07;90118;1261;98772;-77
2023/01/09 05:22:35;;;;;;;81.10;48.40;;;;;;;1.06;87.91;97582.23;90115;1269;22570;-76
2023/01/09 05:24:36;;;;;;;80.90;46.70;;;;;;;1.08;87.79;97577.48;90064;1269;22614;-76
2023/01/09 05:26:38;;;;;;;92.90;48.60;;;;;;;1.12;87.75;97577.38;90001;1271;97882;-77
2023/01/09 05:28:40;;;;;;;84.60;50.20;;;;;;;1.14;87.94;97572.44;90046;1270;23133;-77
2023/01/09 05:30:42;;;;;;;85.20;51.70;;;;;;;1.18;87.86;97570.05;90170;1268;24202;-76
2023/01/09 05:32:43;;;;;;;85.50;50.20;;;;;;;1.23;87.77;97567.66;89953;1266;97677;-76
2023/01/09 05:34:45;;;;;;;85.70;50.30;;;;;;;1.27;87.93;97574.63;89963;1265;24212;-77
2023/01/09 05:36:47;;;;;;;80.30;47.80;;;;;;;1.31;88.00;97574.31;90011;1272;22700;-76
2023/01/09 05:38:49;;;;;;;81.20;49.10;;;;;;;1.34;88.11;97578.52;90095;1270;97716;-74
2023/01/09 05:40:51;;;;;;;74.60;46.80;;;;;;;1.38;88.02;97576.85;90084;1269;25481;-77
2023/01/09 05:42:52;;;;;;;78.40;48.80;;;;;;;1.41;88.08;97573.79;90180;1270;22558;-77
2023/01/09 05:44:54;;;;;;;78.30;49.80;;;;;;;1.44;87.99;97571.44;90104;1271;97882;-77
2023/01/09 05:46:56;;;;;;;78.60;50.40;;;;;;;1.46;87.62;97572.06;90028;1267;22554;-77
2023/01/09 05:48:57;;;;;;;82.70;50.80;;;;;;;1.49;87.86;97567.46;90051;1269;22707;-77
2023/01/09 05:50:59;;;;;;;83.80;51.30;;;;;;;1.51;88.03;97569.29;89919;1262;99672;-77
2023/01/09 05:53:01;;;;;;;79.50;48.10;;;;;;;1.55;87.81;97572.14;90198;1269;22573;-77
2023/01/09 05:55:04;;;;;;;83.20;48.20;;;;;;;1.56;88.25;97562.04;90198;1268;22549;-76
2023/01/09 05:57:05;;;;;;;74.50;46.50;;;;;;;1.59;88.02;97554.68;90142;1267;98178;-77
2023/01/09 05:59:07;;;;;;;80.60;48.90;;;;;;;1.65;87.85;97561.23;90008;1271;23398;-76
2023/01/09 06:01:09;;;;;;;80.50;51.20;;;;;;;1.68;88.06;97553.65;90135;1269;22572;-77
2023/01/09 06:03:11;;;;;;;87.60;49.60;;;;;;;1.71;88.01;97555.29;89984;1269;98817;-76
2023/01/09 06:05:13;;;;;;;89.00;50.00;;;;;;;1.74;87.96;97555.02;90262;1269;22603;-75
2023/01/09 06:07:15;;;;;;;78.90;48.30;;;;;;;1.76;87.95;97552.84;90277;1268;22710;-73
2023/01/09 06:09:16;;;;;;;81.00;49.40;;;;;;;1.80;88.05;97554.64;90147;1270;99162;-74
2023/01/09 06:11:18;;;;;;;81.60;49.00;;;;;;;1.82;88.21;97553.86;90291;1261;22526;-74
2023/01/09 06:13:20;;;;;;;71.90;43.70;;;;;;;1.86;87.97;97554.94;90096;1269;22641;-73
2023/01/09 06:15:21;;;;;;;83.80;47.60;;;;;;;1.88;88.17;97550.68;90005;1269;98421;-74
2023/01/09 06:17:23;;;;;;;80.10;46.80;;;;;;;1.91;87.80;97552.14;90214;1268;22756;-73
2023/01/09 06:19:25;;;;;;;78.50;48.40;;;;;;;1.94;87.81;97543.73;90145;1269;25568;-72
2023/01/09 06:21:28;;;;;;;70.50;47.10;;;;;;;1.97;87.98;97547.27;90107;1268;98257;-74
2023/01/09 06:23:30;;;;;;;77.80;48.60;;;;;;;1.99;88.22;97549.42;89997;1271;25648;-73
2023/01/09 06:25:32;;;;;;;81.40;47.40;;;;;;;2.02;88.12;97543.10;89982;1269;24915;-74
2023/01/09 06:27:33;;;;;;;75.40;47.40;;;;;;;2.05;87.96;97541.93;89963;1268;97741;-73
2023/01/09 06:29:35;;;;;;;75.30;44.50;;;;;;;2.07;87.75;97538.92;89974;1269;22534;-72
2023/01/09 06:31:37;;;;;;;67.80;45.80;;;;;;;2.11;88.11;97542.23;89898;1256;27276;-73
2023/01/09 06:33:38;;;;;;;74.50;46.40;;;;;;;2.11;88.04;97541.17;89919;1268;98915;-75
2023/01/09 06:35:40;;;;;;;72.80;45.50;;;;;;;2.17;87.98;97540.62;89886;1263;22572;-73
2023/01/09 06:37:43;;;;;;;77.90;47.00;;;;;;;2.19;87.91;97537.75;89702;1271;22535;-73
2023/01/09 06:39:45;;;;;;;76.80;46.70;;;;;;;2.21;88.08;97537.54;89916;1270;97599;-73
2023/01/09 06:41:46;;;;;;;75.20;48.10;;;;;;;2.22;88.10;97540.77;90116;1262;23023;-72
2023/01/09 06:43:48;;;;;;;74.60;46.90;;;;;;;2.24;87.91;97542.80;89981;1271;22641;-73
2023/01/09 06:45:49;;;;;;;74.70;47.20;;;;;;;2.26;88.05;97539.09;89974;1268;98997;-73
2023/01/09 06:47:51;;;;;;;69.40;43.60;;;;;;;2.27;88.30;97537.29;90048;1262;22578;-73
2023/01/09 06:49:53;;;;;;;72.10;44.00;;;;;;;2.29;88.11;97538.63;89766;1272;98096;-72
2023/01/09 06:51:54;;;;;;;67.10;42.70;;;;;;;2.32;88.18;97538.52;90072;1267;22503;-73
2023/01/09 06:53:56;;;;;;;70.20;42.60;;;;;;;2.35;88.18;97537.54;89951;1271;22548;-74
2023/01/09 06:55:58;;;;;;;73.20;42.50;;;;;;;2.37;88.22;97536.91;89909;1269;98107;-75
2023/01/09 06:58:00;;;;;;;61.60;41.10;;;;;;;2.42;88.28;97538.64;90199;1270;26125;-75
2023/01/09 07:00:03;;;;;;;64.40;41.20;;;;;;;2.45;88.20;97524.64;89968;1269;23012;-74
2023/01/09 07:02:05;;;;;;;62.40;38.40;;;;;;;2.49;88.16;97523.98;89960;1264;99223;-73
2023/01/09 07:04:09;;;;;;;63.30;40.20;;;;;;;2.55;88.21;97515.95;90184;1268;22609;-73
2023/01/09 07:06:11;;;;;;;66.90;39.70;;;;;;;2.59;88.52;97516.49;90200;1269;22523;-74
2023/01/09 07:08:13;;;;;;;65.80;39.90;;;;;;;2.63;88.35;97517.91;90212;1262;98163;-74
2023/01/09 07:10:15;;;;;;;61.90;38.70;;;;;;;2.66;88.27;97519.68;90294;1262;22795;-74
2023/01/09 07:12:17;;;;;;;63.40;38.50;;;;;;;2.69;88.43;97516.45;90310;1262;22544;-73
2023/01/09 07:14:18;;;;;;;61.30;39.50;;;;;;;2.72;88.16;97519.60;90275;1257;97981;-75
2023/01/09 07:16:20;;;;;;;64.10;41.30;;;;;;;2.75;88.14;97511.52;90222;1270;22534;-74
2023/01/09 07:18:22;;;;;;;67.20;40.50;;;;;;;2.77;88.18;97506.76;90231;1268;22608;-73
2023/01/09 07:20:23;;;;;;;65.70;41.30;;;;;;;2.78;88.07;97510.70;90030;1264;97842;-74
2023/01/09 07:22:25;;;;;;;70.40;41.60;;;;;;;2.81;88.02;97514.75;90106;1255;22606;-75
2023/01/09 07:24:27;;;;;;;61.60;40.00;;;;;;;2.82;88.11;97514.33;90091;1265;22536;-74
2023/01/09 07:26:28;;;;;;;68.80;41.80;;;;;;;2.84;88.23;97515.67;90235;1267;99035;-74
2023/01/09 07:28:30;;;;;;;65.50;41.60;;;;;;;2.85;88.24;97516.48;90084;1271;22533;-74
2023/01/09 07:30:32;;;;;;;63.70;41.80;;;;;;;2.86;88.22;97522.52;90122;1271;22594;-74
2023/01/09 07:32:34;;;;;;;66.60;42.80;;;;;;;2.87;88.31;97522.82;90333;1268;100054;-75
2023/01/09 07:34:35;;;;;;;72.90;41.90;;;;;;;2.88;88.19;97528.86;90356;1267;24241;-74
2023/01/09 07:36:37;;;;;;;64.60;39.40;;;;;;;2.89;88.35;97516.85;90307;1262;22944;-74
2023/01/09 07:38:38;;;;;;;75.00;43.10;;;;;;;2.90;88.01;97522.67;90107;1269;97706;-74
2023/01/09 07:40:40;;;;;;;66.50;44.00;;;;;;;2.92;88.21;97524.20;90279;1258;23918;-74
2023/01/09 07:42:42;;;;;;;65.40;43.10;;;;;;;2.94;88.25;97525.33;90433;1268;22621;-75
2023/01/09 07:44:44;;;;;;;86.40;44.10;;;;;;;2.97;88.20;97521.74;90672;1269;98835;-72
2023/01/09 07:46:45;;;;;;;71.60;44.10;;;;;;;2.98;88.06;97521.35;90825;1262;23286;-73
2023/01/09 07:48:47;;;;;;;69.00;45.70;;;;;;;2.99;88.24;97521.10;90780;1269;22723;-72
2023/01/09 07:50:49;;;;;;;63.80;40.70;;;;;;;3.01;88.15;97523.50;90695;1267;97645;-74
2023/01/09 07:52:50;;;;;;;67.40;41.00;;;;;;;3.02;88.09;97523.29;90740;1270;22468;-73
2023/01/09 07:54:52;;;;;;;66.70;42.10;;;;;;;3.04;88.40;97522.14;90650;1269;26596;-73
2023/01/09 07:56:54;;;;;;;60.00;40.30;;;;;;;3.06;88.39;97523.09;90370;1270;97726;-73
2023/01/09 07:58:56;;;;;;;63.90;41.30;;;;;;;3.08;88.23;97520.58;90411;1263;24356;-74
2023/01/09 08:00:58;;;;;;;74.60;41.60;;;;;;;3.09;87.98;97517.61;90485;1271;22619;-75
2023/01/09 08:02:59;;;;;;;59.60;38.90;;;;;;;3.10;88.11;97520.68;90614;1265;100026;-74
2023/01/09 08:05:02;;;;;;;68.30;40.50;;;;;;;3.11;88.23;97521.64;90750;1262;22522;-74
2023/01/09 08:07:03;;;;;;;68.80;40.40;;;;;;;3.10;88.15;97518.60;90712;1268;22559;-74
2023/01/09 08:09:05;;;;;;;70.30;39.70;;;;;;;3.14;88.28;97520.31;90419;1264;97907;-74
2023/01/09 08:11:07;;;;;;;69.40;39.30;;;;;;;3.16;88.18;97518.52;90777;1269;22801;-74
2023/01/09 08:13:09;;;;;;;69.80;39.40;;;;;;;3.19;88.13;97518.07;90817;1265;22510;-74
2023/01/09 08:15:12;;;;;;;63.70;39.00;;;;;;;3.18;88.15;97516.89;90625;1269;98322;-75
2023/01/09 08:17:13;;;;;;;57.90;36.80;;;;;;;3.24;88.27;97523.21;90767;1268;22457;-74
2023/01/09 08:19:15;;;;;;;68.30;37.80;;;;;;;3.28;88.21;97522.73;90749;1269;24322;-74
2023/01/09 08:21:17;;;;;;;71.80;41.20;;;;;;;3.30;88.23;97515.36;90771;1264;97987;-74
2023/01/09 08:23:18;;;;;;;68.30;41.30;;;;;;;3.32;88.20;97509.67;90468;1272;98945;-72
2023/01/09 08:25:20;;;;;;;70.50;40.40;;;;;;;3.34;88.13;97512.89;90751;1270;25324;-74
2023/01/09 08:27:22;;;;;;;71.40;41.40;;;;;;;3.36;88.08;97511.09;90886;1262;24411;-73
2023/01/09 08:29:24;;;;;;;69.00;40.30;;;;;;;3.38;88.23;97507.20;90691;1264;98878;-74
2023/01/09 08:31:25;;;;;;;67.20;40.80;;;;;;;3.39;88.18;97505.38;90928;1269;25313;-73
2023/01/09 08:33:27;;;;;;;64.70;39.40;;;;;;;3.42;88.20;97506.48;90677;1273;22517;-74
2023/01/09 08:35:29;;;;;;;68.10;40.80;;;;;;;3.45;88.08;97507.73;90809;1268;98796;-75
2023/01/09 08:37:31;;;;;;;66.20;39.70;;;;;;;3.48;88.21;97506.74;90870;1270;25327;-75
2023/01/09 08:39:34;;;;;;;74.10;43.60;;;;;;;3.51;88.02;97503.13;90943;1269;22531;-74
2023/01/09 08:48:42;;;;;;;64.30;37.10;;;;;;;3.62;88.04;97501.66;90788;1256;22650;-74
2023/01/09 08:50:44;;;;;;;66.50;38.80;;;;;;;3.64;87.98;97504.33;90752;1269;22638;-74
2023/01/09 08:52:46;;;;;;;61.50;38.30;;;;;;;3.67;88.21;97506.30;90769;1269;98002;-73
2023/01/09 08:54:47;;;;;;;69.70;38.60;;;;;;;3.69;88.25;97509.29;90764;1271;22609;-74
2023/01/09 08:56:49;;;;;;;65.30;38.00;;;;;;;3.72;88.17;97516.29;90784;1271;24196;-74
2023/01/09 08:58:51;;;;;;;63.20;37.10;;;;;;;3.76;88.18;97517.19;90905;1268;98603;-74
2023/01/09 09:00:53;;;;;;;60.30;37.60;;;;;;;3.78;88.00;97515.50;90884;1268;22469;-73
2023/01/09 09:02:57;;;;;;;62.30;38.80;;;;;;;3.82;88.13;97515.17;90668;1262;22538;-74
2023/01/09 09:04:59;;;;;;;68.30;43.80;;;;;;;3.86;88.18;97514.48;90467;1260;98643;-74
2023/01/09 09:07:01;;;;;;;63.50;43.40;;;;;;;3.91;88.15;97513.55;90689;1266;22592;-74
2023/01/09 09:09:05;;;;;;;63.20;41.40;;;;;;;3.97;88.18;97506.35;90671;1267;23804;-74
2023/01/09 09:11:08;;;;;;;68.30;38.50;;;;;;;4.01;88.11;97502.15;90782;1258;98273;-74
2023/01/09 09:13:10;;;;;;;61.90;38.50;;;;;;;4.06;87.98;97495.30;90828;1268;22828;-74
2023/01/09 09:15:11;;;;;;;61.40;38.40;;;;;;;4.11;88.02;97491.45;90776;1268;22535;-74
2023/01/09 09:17:13;;;;;;;57.70;38.30;;;;;;;4.15;88.03;97488.98;90718;1269;97737;-74
2023/01/09 09:19:15;;;;;;;56.60;36.70;;;;;;;4.20;88.03;97484.58;90620;1264;22528;-75
2023/01/09 09:21:17;;;;;;;53.20;34.60;;;;;;;4.25;88.11;97483.48;90703;1269;22959;-76
2023/01/09 09:23:18;;;;;;;66.50;37.80;;;;;;;4.33;88.01;97481.39;90529;1270;97692;-74
2023/01/09 09:25:20;;;;;;;57.70;36.00;;;;;;;4.38;87.93;97480.98;90741;1272;23109;-75
2023/01/09 09:27:22;;;;;;;61.80;37.90;;;;;;;4.44;88.01;97490.80;90605;1265;22487;-72
2023/01/09 09:29:24;;;;;;;69.50;35.80;;;;;;;4.50;87.92;97488.77;90890;1268;98876;-74
2023/01/09 09:31:26;;;;;;;78.50;39.40;;;;;;;4.57;88.03;97488.77;90902;1268;22537;-76
2023/01/09 09:33:29;;;;;;;68.90;39.70;;;;;;;4.65;88.02;97483.36;90689;1263;22612;-74
2023/01/09 09:35:32;;;;;;;75.80;39.50;;;;;;;4.71;88.01;97483.42;90821;1270;99075;-74
2023/01/09 09:37:34;;;;;;;66.80;39.40;;;;;;;4.72;87.92;97471.02;91039;1268;24436;-75
2023/01/09 09:39:36;;;;;;;64.80;37.90;;;;;;;4.78;87.90;97470.56;90956;1273;27452;-74
2023/01/09 09:44:53;;;;;;;86.30;41.20;;;;;;;4.86;87.87;97466.15;90884;1268;22554;-75
2023/01/09 09:47:24;;;;;;;83.80;41.40;;;;;;;4.89;87.84;97470.00;91110;1269;97997;-74
2023/01/09 09:49:49;;;;;;;94.70;48.00;;;;;;;4.93;87.92;97465.29;90712;1269;23429;-74
2023/01/09 09:52:03;;;;;;;87.90;46.70;;;;;;;4.98;88.05;97469.91;90786;1273;22563;-74